sensor_id;sensor_type;location;lat;lon;timestamp;pressure;altitude;pressure_sealevel;temperature;humidity
61345;BME280;47216;42.656;23.232;2023-05-22T00:02:21;93680.41;;;13.08;74.58
61345;BME280;47216;42.656;23.232;2023-05-22T00:04:49;93677.78;;;13.08;74.77
61345;BME280;47216;42.656;23.232;2023-05-22T00:07:16;93677.00;;;13.07;74.27
61345;BME280;47216;42.656;23.232;2023-05-22T00:09:44;93669.69;;;13.09;74.76
61345;BME280;47216;42.656;23.232;2023-05-22T00:12:11;93672.31;;;13.04;74.89
61345;BME280;47216;42.656;23.232;2023-05-22T00:14:38;93671.53;;;13.09;74.57
61345;BME280;47216;42.656;23.232;2023-05-22T00:17:05;93674.91;;;13.09;74.56
61345;BME280;47216;42.656;23.232;2023-05-22T00:19:32;93669.44;;;13.06;74.80
61345;BME280;47216;42.656;23.232;2023-05-22T00:21:59;93674.69;;;13.06;75.01
61345;BME280;47216;42.656;23.232;2023-05-22T00:24:26;93676.50;;;13.00;75.15
61345;BME280;47216;42.656;23.232;2023-05-22T00:26:55;93666.31;;;12.98;75.16
61345;BME280;47216;42.656;23.232;2023-05-22T00:29:22;93672.34;;;12.94;75.63
61345;BME280;47216;42.656;23.232;2023-05-22T00:31:48;93672.59;;;12.97;76.12
61345;BME280;47216;42.656;23.232;2023-05-22T00:34:15;93672.84;;;13.06;76.10
61345;BME280;47216;42.656;23.232;2023-05-22T00:36:42;93665.22;;;13.15;76.00
61345;BME280;47216;42.656;23.232;2023-05-22T00:39:09;93669.91;;;13.18;75.48
61345;BME280;47216;42.656;23.232;2023-05-22T00:41:36;93682.44;;;13.26;75.58
61345;BME280;47216;42.656;23.232;2023-05-22T00:44:05;93673.03;;;13.30;75.43
61345;BME280;47216;42.656;23.232;2023-05-22T00:46:32;93675.66;;;13.30;75.13
61345;BME280;47216;42.656;23.232;2023-05-22T00:48:59;93677.00;;;13.17;75.45
61345;BME280;47216;42.656;23.232;2023-05-22T00:51:26;93678.56;;;13.18;75.49
61345;BME280;47216;42.656;23.232;2023-05-22T00:53:54;93684.06;;;13.22;75.55
61345;BME280;47216;42.656;23.232;2023-05-22T00:56:21;93681.44;;;13.17;75.66
61345;BME280;47216;42.656;23.232;2023-05-22T00:58:48;93680.38;;;13.23;75.19
61345;BME280;47216;42.656;23.232;2023-05-22T01:01:16;93679.31;;;13.19;74.91
61345;BME280;47216;42.656;23.232;2023-05-22T01:03:43;93681.44;;;13.22;75.02
61345;BME280;47216;42.656;23.232;2023-05-22T01:06:12;93682.47;;;13.21;75.25
61345;BME280;47216;42.656;23.232;2023-05-22T01:08:39;93678.56;;;13.18;74.98
61345;BME280;47216;42.656;23.232;2023-05-22T01:11:11;93677.50;;;13.14;74.81
61345;BME280;47216;42.656;23.232;2023-05-22T01:13:49;93677.22;;;13.21;75.03
61345;BME280;47216;42.656;23.232;2023-05-22T01:16:25;93678.31;;;13.15;75.04
61345;BME280;47216;42.656;23.232;2023-05-22T01:18:59;93677.00;;;13.07;74.75
61345;BME280;47216;42.656;23.232;2023-05-22T01:21:33;93671.06;;;12.86;75.33
61345;BME280;47216;42.656;23.232;2023-05-22T01:27:54;93673.66;;;12.91;74.97
61345;BME280;47216;42.656;23.232;2023-05-22T01:30:47;93667.13;;;12.83;75.50
61345;BME280;47216;42.656;23.232;2023-05-22T01:33:15;93667.91;;;12.84;75.52
61345;BME280;47216;42.656;23.232;2023-05-22T01:35:46;93666.88;;;12.80;75.43
61345;BME280;47216;42.656;23.232;2023-05-22T01:38:15;93658.53;;;12.78;75.59
61345;BME280;47216;42.656;23.232;2023-05-22T01:40:43;93654.88;;;12.74;75.67
61345;BME280;47216;42.656;23.232;2023-05-22T01:43:12;93646.50;;;12.72;75.14
61345;BME280;47216;42.656;23.232;2023-05-22T01:45:39;93662.16;;;12.82;75.41
61345;BME280;47216;42.656;23.232;2023-05-22T01:48:07;93656.16;;;12.76;75.45
61345;BME280;47216;42.656;23.232;2023-05-22T01:50:34;93660.09;;;12.79;74.90
61345;BME280;47216;42.656;23.232;2023-05-22T01:53:13;93657.47;;;12.74;74.78
61345;BME280;47216;42.656;23.232;2023-05-22T01:55:45;93666.38;;;12.73;75.31
61345;BME280;47216;42.656;23.232;2023-05-22T01:58:33;93665.59;;;12.72;74.92
61345;BME280;47216;42.656;23.232;2023-05-22T02:01:02;93664.81;;;12.67;75.21
61345;BME280;47216;42.656;23.232;2023-05-22T02:03:32;93656.47;;;12.59;74.52
61345;BME280;47216;42.656;23.232;2023-05-22T02:06:04;93663.78;;;12.57;74.99
61345;BME280;47216;42.656;23.232;2023-05-22T02:08:31;93659.06;;;12.54;74.90
61345;BME280;47216;42.656;23.232;2023-05-22T02:10:59;93659.59;;;12.51;74.73
61345;BME280;47216;42.656;23.232;2023-05-22T02:13:27;93661.44;;;12.56;75.02
61345;BME280;47216;42.656;23.232;2023-05-22T02:15:56;93655.97;;;12.52;74.53
61345;BME280;47216;42.656;23.232;2023-05-22T02:18:27;93664.06;;;12.51;74.57
61345;BME280;47216;42.656;23.232;2023-05-22T02:20:57;93656.19;;;12.40;74.81
61345;BME280;47216;42.656;23.232;2023-05-22T02:23:24;93667.19;;;12.37;74.74
61345;BME280;47216;42.656;23.232;2023-05-22T02:25:53;93665.13;;;12.34;74.94
61345;BME280;47216;42.656;23.232;2023-05-22T02:28:21;93652.84;;;12.25;75.19
61345;BME280;47216;42.656;23.232;2023-05-22T02:30:48;93650.72;;;12.22;75.18
61345;BME280;47216;42.656;23.232;2023-05-22T02:33:14;93661.97;;;12.27;75.17
61345;BME280;47216;42.656;23.232;2023-05-22T02:35:43;93661.72;;;12.24;75.67
61345;BME280;47216;42.656;23.232;2023-05-22T02:38:11;93660.41;;;12.21;75.71
61345;BME280;47216;42.656;23.232;2023-05-22T02:40:38;93660.94;;;12.18;76.13
61345;BME280;47216;42.656;23.232;2023-05-22T02:43:05;93658.81;;;12.15;76.14
61345;BME280;47216;42.656;23.232;2023-05-22T02:45:32;93649.69;;;12.12;76.33
61345;BME280;47216;42.656;23.232;2023-05-22T02:47:59;93649.69;;;12.07;76.64
61345;BME280;47216;42.656;23.232;2023-05-22T02:50:27;93650.75;;;12.11;77.27
61345;BME280;47216;42.656;23.232;2023-05-22T02:52:54;93654.41;;;12.21;77.05
61345;BME280;47216;42.656;23.232;2023-05-22T02:55:22;93658.56;;;12.27;77.08
61345;BME280;47216;42.656;23.232;2023-05-22T02:57:49;93656.47;;;12.24;76.92
61345;BME280;47216;42.656;23.232;2023-05-22T03:00:17;93650.75;;;12.16;77.03
61345;BME280;47216;42.656;23.232;2023-05-22T03:02:44;93646.81;;;12.19;76.75
61345;BME280;47216;42.656;23.232;2023-05-22T03:05:11;93649.19;;;12.21;76.24
61345;BME280;47216;42.656;23.232;2023-05-22T03:07:41;93643.94;;;12.21;76.70
61345;BME280;47216;42.656;23.232;2023-05-22T03:10:09;93641.34;;;12.21;76.35
61345;BME280;47216;42.656;23.232;2023-05-22T03:12:38;93644.47;;;12.23;76.83
61345;BME280;47216;42.656;23.232;2023-05-22T03:15:06;93653.88;;;12.34;76.90
61345;BME280;47216;42.656;23.232;2023-05-22T03:17:33;93655.94;;;12.42;76.52
61345;BME280;47216;42.656;23.232;2023-05-22T03:19:59;93652.31;;;12.43;76.72
61345;BME280;47216;42.656;23.232;2023-05-22T03:22:26;93649.66;;;12.38;76.69
61345;BME280;47216;42.656;23.232;2023-05-22T03:24:53;93653.09;;;12.44;76.69
61345;BME280;47216;42.656;23.232;2023-05-22T03:27:20;93653.84;;;12.44;76.86
61345;BME280;47216;42.656;23.232;2023-05-22T03:29:48;93651.78;;;12.46;77.35
61345;BME280;47216;42.656;23.232;2023-05-22T03:32:16;93653.84;;;12.49;77.09
61345;BME280;47216;42.656;23.232;2023-05-22T03:34:43;93650.19;;;12.55;77.07
61345;BME280;47216;42.656;23.232;2023-05-22T03:37:10;93655.69;;;12.54;77.10
61345;BME280;47216;42.656;23.232;2023-05-22T03:39:37;93651.50;;;12.53;77.48
61345;BME280;47216;42.656;23.232;2023-05-22T03:42:05;93661.44;;;12.56;77.91
61345;BME280;47216;42.656;23.232;2023-05-22T03:44:31;93655.41;;;12.55;77.82
61345;BME280;47216;42.656;23.232;2023-05-22T03:47:00;93658.28;;;12.59;78.23
61345;BME280;47216;42.656;23.232;2023-05-22T03:49:27;93656.44;;;12.65;78.06
61345;BME280;47216;42.656;23.232;2023-05-22T03:51:54;93660.09;;;12.74;78.74
61345;BME280;47216;42.656;23.232;2023-05-22T03:54:21;93655.91;;;12.73;78.64
61345;BME280;47216;42.656;23.232;2023-05-22T03:56:48;93655.63;;;12.79;78.43
61345;BME280;47216;42.656;23.232;2023-05-22T03:59:15;93654.31;;;12.82;78.80
61345;BME280;47216;42.656;23.232;2023-05-22T04:01:42;93657.16;;;12.91;78.60
61345;BME280;47216;42.656;23.232;2023-05-22T04:04:12;93660.56;;;13.01;78.78
61345;BME280;47216;42.656;23.232;2023-05-22T04:06:40;93663.66;;;13.09;78.69
61345;BME280;47216;42.656;23.232;2023-05-22T04:09:08;93659.47;;;13.13;78.36
61345;BME280;47216;42.656;23.232;2023-05-22T04:11:36;93656.03;;;13.22;78.76
61345;BME280;47216;42.656;23.232;2023-05-22T04:14:05;93661.53;;;13.31;78.65
61345;BME280;47216;42.656;23.232;2023-05-22T04:16:32;93656.00;;;13.38;78.74
61345;BME280;47216;42.656;23.232;2023-05-22T04:18:58;93656.72;;;13.49;78.66
61345;BME280;47216;42.656;23.232;2023-05-22T04:21:29;93656.19;;;13.52;77.95
61345;BME280;47216;42.656;23.232;2023-05-22T04:23:58;93664.22;;;13.65;78.37
61345;BME280;47216;42.656;23.232;2023-05-22T04:26:25;93660.22;;;13.78;77.79
61345;BME280;47216;42.656;23.232;2023-05-22T04:28:53;93658.34;;;13.84;77.69
61345;BME280;47216;42.656;23.232;2023-05-22T04:31:20;93657.56;;;13.83;78.17
61345;BME280;47216;42.656;23.232;2023-05-22T04:33:47;93661.47;;;13.86;78.43
61345;BME280;47216;42.656;23.232;2023-05-22T04:36:15;93666.91;;;14.00;78.18
61345;BME280;47216;42.656;23.232;2023-05-22T04:38:43;93664.25;;;14.05;78.31
61345;BME280;47216;42.656;23.232;2023-05-22T04:41:11;93666.03;;;14.15;78.38
61345;BME280;47216;42.656;23.232;2023-05-22T04:43:42;93664.69;;;14.17;78.20
61345;BME280;47216;42.656;23.232;2023-05-22T04:46:09;93668.25;;;14.32;78.78
61345;BME280;47216;42.656;23.232;2023-05-22T04:48:36;93668.72;;;14.39;78.29
61345;BME280;47216;42.656;23.232;2023-05-22T04:51:03;93667.84;;;14.48;77.98
61345;BME280;47216;42.656;23.232;2023-05-22T04:53:30;93656.81;;;14.52;77.91
61345;BME280;47216;42.656;23.232;2023-05-22T04:55:59;93668.00;;;14.67;78.21
61345;BME280;47216;42.656;23.232;2023-05-22T04:58:26;93665.25;;;14.78;77.66
61345;BME280;47216;42.656;23.232;2023-05-22T05:00:52;93663.91;;;14.80;75.60
61345;BME280;47216;42.656;23.232;2023-05-22T05:03:22;93660.38;;;14.95;74.92
61345;BME280;47216;42.656;23.232;2023-05-22T05:05:50;93664.72;;;15.05;74.53
61345;BME280;47216;42.656;23.232;2023-05-22T05:08:16;93666.38;;;15.20;73.49
61345;BME280;47216;42.656;23.232;2023-05-22T05:10:43;93677.34;;;15.27;72.55
61345;BME280;47216;42.656;23.232;2023-05-22T05:13:11;93673.59;;;15.33;72.44
61345;BME280;47216;42.656;23.232;2023-05-22T05:15:39;93669.78;;;15.44;72.14
61345;BME280;47216;42.656;23.232;2023-05-22T05:18:06;93663.34;;;15.55;71.91
61345;BME280;47216;42.656;23.232;2023-05-22T05:20:33;93680.50;;;15.72;72.08
61345;BME280;47216;42.656;23.232;2023-05-22T05:22:59;93670.00;;;15.91;71.92
61345;BME280;47216;42.656;23.232;2023-05-22T05:25:26;93672.84;;;15.94;69.24
61345;BME280;47216;42.656;23.232;2023-05-22T05:27:53;93664.38;;;15.98;68.84
61345;BME280;47216;42.656;23.232;2023-05-22T05:30:22;93673.19;;;16.07;68.35
61345;BME280;47216;42.656;23.232;2023-05-22T05:32:49;93666.72;;;16.18;68.61
61345;BME280;47216;42.656;23.232;2023-05-22T05:35:15;93666.06;;;16.26;68.04
61345;BME280;47216;42.656;23.232;2023-05-22T05:37:43;93671.25;;;16.31;66.70
61345;BME280;47216;42.656;23.232;2023-05-22T05:40:11;93673.13;;;16.45;66.88
61345;BME280;47216;42.656;23.232;2023-05-22T05:42:38;93674.72;;;16.46;66.21
61345;BME280;47216;42.656;23.232;2023-05-22T05:45:05;93674.34;;;16.52;66.00
61345;BME280;47216;42.656;23.232;2023-05-22T05:47:33;93672.47;;;16.53;66.10
61345;BME280;47216;42.656;23.232;2023-05-22T05:50:00;93676.50;;;16.64;66.06
61345;BME280;47216;42.656;23.232;2023-05-22T05:52:27;93676.31;;;16.74;65.21
61345;BME280;47216;42.656;23.232;2023-05-22T05:54:56;93681.81;;;16.78;64.84
61345;BME280;47216;42.656;23.232;2023-05-22T05:57:25;93675.13;;;16.86;64.34
61345;BME280;47216;42.656;23.232;2023-05-22T05:59:52;93682.06;;;16.95;63.36
61345;BME280;47216;42.656;23.232;2023-05-22T06:02:19;93680.13;;;17.01;62.52
61345;BME280;47216;42.656;23.232;2023-05-22T06:04:47;93678.94;;;17.07;62.62
61345;BME280;47216;42.656;23.232;2023-05-22T06:07:15;93673.78;;;17.16;61.49
61345;BME280;47216;42.656;23.232;2023-05-22T06:09:42;93679.91;;;17.11;61.94
61345;BME280;47216;42.656;23.232;2023-05-22T06:12:09;93679.53;;;17.18;60.33
61345;BME280;47216;42.656;23.232;2023-05-22T06:14:37;93679.94;;;17.25;60.24
61345;BME280;47216;42.656;23.232;2023-05-22T06:17:04;93688.53;;;17.31;60.47
61345;BME280;47216;42.656;23.232;2023-05-22T06:19:33;93687.16;;;17.33;59.64
61345;BME280;47216;42.656;23.232;2023-05-22T06:22:01;93683.81;;;17.41;58.25
61345;BME280;47216;42.656;23.232;2023-05-22T06:24:28;93680.91;;;17.43;58.47
61345;BME280;47216;42.656;23.232;2023-05-22T06:26:56;93681.00;;;17.52;59.18
61345;BME280;47216;42.656;23.232;2023-05-22T06:29:23;93686.75;;;17.68;58.54
61345;BME280;47216;42.656;23.232;2023-05-22T06:31:50;93687.53;;;17.68;58.61
61345;BME280;47216;42.656;23.232;2023-05-22T06:34:17;93679.78;;;17.72;58.70
61345;BME280;47216;42.656;23.232;2023-05-22T06:36:46;93683.63;;;17.66;58.66
61345;BME280;47216;42.656;23.232;2023-05-22T06:39:16;93677.06;;;17.77;57.48
61345;BME280;47216;42.656;23.232;2023-05-22T06:41:43;93686.75;;;17.68;58.16
61345;BME280;47216;42.656;23.232;2023-05-22T06:44:10;93683.63;;;17.66;58.79
61345;BME280;47216;42.656;23.232;2023-05-22T06:46:37;93678.13;;;17.76;58.98
61345;BME280;47216;42.656;23.232;2023-05-22T06:49:04;93670.34;;;17.71;59.51
61345;BME280;47216;42.656;23.232;2023-05-22T06:51:31;93677.00;;;17.82;59.04
61345;BME280;47216;42.656;23.232;2023-05-22T06:53:58;93670.94;;;17.68;58.04
61345;BME280;47216;42.656;23.232;2023-05-22T06:56:26;93676.59;;;17.75;57.18
61345;BME280;47216;42.656;23.232;2023-05-22T06:58:53;93675.31;;;17.72;58.07
61345;BME280;47216;42.656;23.232;2023-05-22T07:01:20;93681.16;;;17.83;58.21
61345;BME280;47216;42.656;23.232;2023-05-22T07:03:47;93689.84;;;17.97;57.05
61345;BME280;47216;42.656;23.232;2023-05-22T07:06:14;93680.25;;;18.01;58.15
61345;BME280;47216;42.656;23.232;2023-05-22T07:08:42;93685.31;;;18.12;57.84
61345;BME280;47216;42.656;23.232;2023-05-22T07:11:09;93687.84;;;18.17;56.32
61345;BME280;47216;42.656;23.232;2023-05-22T07:13:38;93669.25;;;18.22;55.80
61345;BME280;47216;42.656;23.232;2023-05-22T07:16:05;93672.72;;;18.31;56.94
61345;BME280;47216;42.656;23.232;2023-05-22T07:18:32;93666.34;;;18.55;56.84
61345;BME280;47216;42.656;23.232;2023-05-22T07:20:59;93665.78;;;18.58;56.18
61345;BME280;47216;42.656;23.232;2023-05-22T07:23:27;93669.59;;;18.74;55.50
61345;BME280;47216;42.656;23.232;2023-05-22T07:25:53;93667.44;;;18.76;54.09
61345;BME280;47216;42.656;23.232;2023-05-22T07:28:20;93670.94;;;18.85;53.25
61345;BME280;47216;42.656;23.232;2023-05-22T07:30:49;93667.19;;;18.86;53.70
61345;BME280;47216;42.656;23.232;2023-05-22T07:33:16;93668.16;;;18.99;54.67
61345;BME280;47216;42.656;23.232;2023-05-22T07:35:43;93656.97;;;18.94;53.63
61345;BME280;47216;42.656;23.232;2023-05-22T07:38:10;93662.59;;;19.01;54.74
61345;BME280;47216;42.656;23.232;2023-05-22T07:40:37;93646.25;;;18.99;55.92
61345;BME280;47216;42.656;23.232;2023-05-22T07:43:04;93658.59;;;19.12;54.61
61345;BME280;47216;42.656;23.232;2023-05-22T07:45:31;93663.00;;;19.25;54.36
61345;BME280;47216;42.656;23.232;2023-05-22T07:47:59;93663.63;;;19.31;53.62
61345;BME280;47216;42.656;23.232;2023-05-22T07:50:27;93673.25;;;19.27;54.75
61345;BME280;47216;42.656;23.232;2023-05-22T07:52:55;93654.75;;;19.27;54.02
61345;BME280;47216;42.656;23.232;2023-05-22T07:55:21;93654.09;;;19.13;55.51
61345;BME280;47216;42.656;23.232;2023-05-22T07:57:49;93666.72;;;19.24;54.92
61345;BME280;47216;42.656;23.232;2023-05-22T08:00:18;93674.06;;;19.36;54.50
61345;BME280;47216;42.656;23.232;2023-05-22T08:02:45;93673.63;;;19.43;52.19
61345;BME280;47216;42.656;23.232;2023-05-22T08:05:13;93670.88;;;19.48;52.32
61345;BME280;47216;42.656;23.232;2023-05-22T08:07:40;93668.06;;;19.53;52.99
61345;BME280;47216;42.656;23.232;2023-05-22T08:10:12;93674.63;;;19.64;52.78
61345;BME280;47216;42.656;23.232;2023-05-22T08:12:39;93657.19;;;19.63;51.37
61345;BME280;47216;42.656;23.232;2023-05-22T08:15:07;93670.97;;;19.83;51.20
61345;BME280;47216;42.656;23.232;2023-05-22T08:17:34;93664.75;;;19.87;50.90
61345;BME280;47216;42.656;23.232;2023-05-22T08:20:01;93673.44;;;19.79;49.71
61345;BME280;47216;42.656;23.232;2023-05-22T08:22:30;93674.53;;;19.78;50.46
61345;BME280;47216;42.656;23.232;2023-05-22T08:24:56;93676.38;;;19.78;50.31
61345;BME280;47216;42.656;23.232;2023-05-22T08:27:23;93663.78;;;19.75;50.25
61345;BME280;47216;42.656;23.232;2023-05-22T08:29:51;93661.00;;;19.71;50.14
61345;BME280;47216;42.656;23.232;2023-05-22T08:32:17;93663.50;;;20.02;48.17
61345;BME280;47216;42.656;23.232;2023-05-22T08:34:44;93660.41;;;20.18;48.25
61345;BME280;47216;42.656;23.232;2023-05-22T08:37:12;93660.53;;;20.21;50.05
61345;BME280;47216;42.656;23.232;2023-05-22T08:39:40;93666.00;;;20.33;48.51
61345;BME280;47216;42.656;23.232;2023-05-22T08:42:07;93667.38;;;20.31;47.66
61345;BME280;47216;42.656;23.232;2023-05-22T08:44:34;93666.94;;;20.29;47.39
61345;BME280;47216;42.656;23.232;2023-05-22T08:47:01;93655.25;;;20.39;47.58
61345;BME280;47216;42.656;23.232;2023-05-22T08:49:34;93657.88;;;20.47;46.05
61345;BME280;47216;42.656;23.232;2023-05-22T08:52:06;93672.50;;;20.53;45.72
61345;BME280;47216;42.656;23.232;2023-05-22T08:54:41;93664.09;;;20.69;46.06
61345;BME280;47216;42.656;23.232;2023-05-22T08:57:08;93679.53;;;20.58;46.21
61345;BME280;47216;42.656;23.232;2023-05-22T08:59:38;93665.06;;;20.64;46.87
61345;BME280;47216;42.656;23.232;2023-05-22T09:02:06;93652.56;;;20.82;48.18
61345;BME280;47216;42.656;23.232;2023-05-22T09:04:33;93657.22;;;20.85;45.73
61345;BME280;47216;42.656;23.232;2023-05-22T09:07:00;93662.34;;;20.90;46.00
61345;BME280;47216;42.656;23.232;2023-05-22T09:09:30;93658.25;;;21.02;44.47
61345;BME280;47216;42.656;23.232;2023-05-22T09:11:59;93651.41;;;21.01;44.65
61345;BME280;47216;42.656;23.232;2023-05-22T09:14:26;93656.06;;;21.04;45.56
61345;BME280;47216;42.656;23.232;2023-05-22T09:16:53;93661.72;;;20.93;44.56
61345;BME280;47216;42.656;23.232;2023-05-22T09:19:20;93650.81;;;20.86;45.06
61345;BME280;47216;42.656;23.232;2023-05-22T09:21:47;93653.13;;;20.96;42.82
61345;BME280;47216;42.656;23.232;2023-05-22T09:24:15;93650.56;;;21.09;42.76
61345;BME280;47216;42.656;23.232;2023-05-22T09:26:42;93652.63;;;21.03;42.52
61345;BME280;47216;42.656;23.232;2023-05-22T09:29:10;93641.09;;;20.99;42.76
61345;BME280;47216;42.656;23.232;2023-05-22T09:31:40;93657.28;;;21.15;42.85
61345;BME280;47216;42.656;23.232;2023-05-22T09:34:09;93650.66;;;20.91;42.89
61345;BME280;47216;42.656;23.232;2023-05-22T09:36:38;93642.16;;;21.07;41.22
61345;BME280;47216;42.656;23.232;2023-05-22T09:39:06;93636.84;;;21.07;42.03
61345;BME280;47216;42.656;23.232;2023-05-22T09:41:35;93651.56;;;20.95;41.09
61345;BME280;47216;42.656;23.232;2023-05-22T09:44:14;93648.00;;;20.91;40.89
61345;BME280;47216;42.656;23.232;2023-05-22T09:46:44;93633.19;;;20.90;42.49
61345;BME280;47216;42.656;23.232;2023-05-22T09:49:11;93637.41;;;20.91;41.21
61345;BME280;47216;42.656;23.232;2023-05-22T09:51:39;93643.16;;;20.93;41.21
61345;BME280;47216;42.656;23.232;2023-05-22T09:54:07;93647.09;;;20.78;42.12
61345;BME280;47216;42.656;23.232;2023-05-22T09:56:35;93651.94;;;20.76;42.75
61345;BME280;47216;42.656;23.232;2023-05-22T09:59:04;93658.81;;;20.69;43.83
61345;BME280;47216;42.656;23.232;2023-05-22T10:01:35;93648.06;;;20.65;45.43
61345;BME280;47216;42.656;23.232;2023-05-22T10:04:03;93648.03;;;20.74;45.88
61345;BME280;47216;42.656;23.232;2023-05-22T10:06:31;93648.69;;;20.71;46.71
61345;BME280;47216;42.656;23.232;2023-05-22T10:09:02;93652.25;;;20.75;45.57
61345;BME280;47216;42.656;23.232;2023-05-22T10:11:31;93655.34;;;20.77;45.26
61345;BME280;47216;42.656;23.232;2023-05-22T10:14:00;93657.25;;;20.68;46.21
61345;BME280;47216;42.656;23.232;2023-05-22T10:16:28;93658.81;;;20.69;46.45
61345;BME280;47216;42.656;23.232;2023-05-22T10:18:57;93652.41;;;20.70;46.93
61345;BME280;47216;42.656;23.232;2023-05-22T10:21:24;93659.28;;;20.71;47.28
61345;BME280;47216;42.656;23.232;2023-05-22T10:23:52;93658.34;;;20.67;47.03
61345;BME280;47216;42.656;23.232;2023-05-22T10:26:19;93664.88;;;20.61;47.18
61345;BME280;47216;42.656;23.232;2023-05-22T10:28:56;93663.50;;;20.54;47.02
61345;BME280;47216;42.656;23.232;2023-05-22T10:31:27;93660.69;;;20.60;47.30
61345;BME280;47216;42.656;23.232;2023-05-22T10:34:03;93665.03;;;20.55;48.13
61345;BME280;47216;42.656;23.232;2023-05-22T10:36:41;93655.53;;;20.54;47.42
61345;BME280;47216;42.656;23.232;2023-05-22T10:39:27;93666.91;;;20.55;48.04
61345;BME280;47216;42.656;23.232;2023-05-22T10:42:00;93663.50;;;20.54;48.50
61345;BME280;47216;42.656;23.232;2023-05-22T10:44:27;93662.38;;;20.47;47.85
61345;BME280;47216;42.656;23.232;2023-05-22T10:46:54;93661.63;;;20.20;48.28
61345;BME280;47216;42.656;23.232;2023-05-22T10:49:23;93681.88;;;19.90;50.17
61345;BME280;47216;42.656;23.232;2023-05-22T10:51:54;93701.56;;;19.66;52.01
61345;BME280;47216;42.656;23.232;2023-05-22T10:54:37;93680.16;;;19.37;55.89
61345;BME280;47216;42.656;23.232;2023-05-22T10:57:09;93696.75;;;19.28;58.79
61345;BME280;47216;42.656;23.232;2023-05-22T10:59:37;93692.47;;;19.10;60.29
61345;BME280;47216;42.656;23.232;2023-05-22T11:02:17;93709.03;;;18.93;63.39
61345;BME280;47216;42.656;23.232;2023-05-22T11:04:46;93705.38;;;18.80;64.24
61345;BME280;47216;42.656;23.232;2023-05-22T11:07:13;93701.88;;;18.71;65.46
61345;BME280;47216;42.656;23.232;2023-05-22T11:09:41;93691.50;;;18.75;65.57
61345;BME280;47216;42.656;23.232;2023-05-22T11:12:18;93692.66;;;18.82;66.32
61345;BME280;47216;42.656;23.232;2023-05-22T11:14:50;93680.88;;;18.88;65.96
61345;BME280;47216;42.656;23.232;2023-05-22T11:17:19;93679.06;;;18.75;66.46
61345;BME280;47216;42.656;23.232;2023-05-22T11:19:59;93675.66;;;18.75;67.39
61345;BME280;47216;42.656;23.232;2023-05-22T11:22:36;93675.88;;;18.64;66.21
61345;BME280;47216;42.656;23.232;2023-05-22T11:25:06;93667.44;;;18.54;66.52
61345;BME280;47216;42.656;23.232;2023-05-22T11:27:36;93665.72;;;18.26;67.74
61345;BME280;47216;42.656;23.232;2023-05-22T11:30:04;93665.50;;;18.23;68.46
61345;BME280;47216;42.656;23.232;2023-05-22T11:32:34;93667.34;;;18.00;68.27
61345;BME280;47216;42.656;23.232;2023-05-22T11:35:04;93659.19;;;17.74;68.18
61345;BME280;47216;42.656;23.232;2023-05-22T11:37:31;93660.56;;;17.71;69.66
61345;BME280;47216;42.656;23.232;2023-05-22T11:40:04;93670.34;;;17.84;69.19
61345;BME280;47216;42.656;23.232;2023-05-22T11:42:31;93692.47;;;17.97;69.35
61345;BME280;47216;42.656;23.232;2023-05-22T11:44:58;93731.66;;;18.04;71.29
61345;BME280;47216;42.656;23.232;2023-05-22T11:47:25;93734.09;;;18.00;71.09
61345;BME280;47216;42.656;23.232;2023-05-22T11:49:53;93736.38;;;17.93;68.84
61345;BME280;47216;42.656;23.232;2023-05-22T11:52:23;93736.44;;;17.74;67.76
61345;BME280;47216;42.656;23.232;2023-05-22T11:54:51;93726.69;;;17.75;68.18
61345;BME280;47216;42.656;23.232;2023-05-22T11:57:18;93733.13;;;17.69;68.85
61345;BME280;47216;42.656;23.232;2023-05-22T11:59:45;93729.41;;;17.56;68.67
61345;BME280;47216;42.656;23.232;2023-05-22T12:02:13;93727.19;;;17.49;69.23
61345;BME280;47216;42.656;23.232;2023-05-22T12:04:40;93723.56;;;17.45;69.63
61345;BME280;47216;42.656;23.232;2023-05-22T12:07:07;93726.22;;;17.45;70.19
61345;BME280;47216;42.656;23.232;2023-05-22T12:09:37;93722.31;;;17.42;70.02
61345;BME280;47216;42.656;23.232;2023-05-22T12:12:08;93726.78;;;17.42;71.44
61345;BME280;47216;42.656;23.232;2023-05-22T12:14:36;93721.31;;;17.38;71.88
61345;BME280;47216;42.656;23.232;2023-05-22T12:17:02;93707.06;;;17.39;72.10
61345;BME280;47216;42.656;23.232;2023-05-22T12:19:31;93709.31;;;17.46;71.06
61345;BME280;47216;42.656;23.232;2023-05-22T12:21:59;93713.31;;;17.43;69.68
61345;BME280;47216;42.656;23.232;2023-05-22T12:24:38;93710.88;;;17.47;70.24
61345;BME280;47216;42.656;23.232;2023-05-22T12:27:07;93696.91;;;17.33;71.40
61345;BME280;47216;42.656;23.232;2023-05-22T12:29:35;93697.72;;;17.33;72.25
61345;BME280;47216;42.656;23.232;2023-05-22T12:32:03;93702.38;;;17.36;72.22
61345;BME280;47216;42.656;23.232;2023-05-22T12:34:32;93693.38;;;17.37;71.92
61345;BME280;47216;42.656;23.232;2023-05-22T12:37:00;93687.25;;;17.42;72.11
61345;BME280;47216;42.656;23.232;2023-05-22T12:39:27;93683.94;;;17.50;72.65
61345;BME280;47216;42.656;23.232;2023-05-22T12:41:56;93687.72;;;17.58;72.53
61345;BME280;47216;42.656;23.232;2023-05-22T12:44:25;93684.69;;;17.51;72.44
61345;BME280;47216;42.656;23.232;2023-05-22T12:46:52;93688.31;;;17.55;72.97
61345;BME280;47216;42.656;23.232;2023-05-22T12:49:18;93682.06;;;17.64;73.36
61345;BME280;47216;42.656;23.232;2023-05-22T12:51:45;93681.06;;;17.74;72.98
61345;BME280;47216;42.656;23.232;2023-05-22T12:54:12;93680.69;;;17.81;72.41
61345;BME280;47216;42.656;23.232;2023-05-22T12:56:40;93678.84;;;17.81;71.78
61345;BME280;47216;42.656;23.232;2023-05-22T12:59:09;93682.03;;;17.78;72.65
61345;BME280;47216;42.656;23.232;2023-05-22T13:01:36;93674.44;;;17.77;72.66